createdAt,value
2022-09-14T00:01:26.870Z,100604.97
2022-09-14T00:03:56.813Z,100608.63
2022-09-14T00:06:26.368Z,100606.22
2022-09-14T00:08:55.543Z,100615.34
2022-09-14T00:11:25.093Z,100611.47
2022-09-14T00:13:54.039Z,100614.53
2022-09-14T00:16:24.159Z,100601.81
2022-09-14T00:18:53.347Z,100598.44
2022-09-14T00:21:21.441Z,100597.19
2022-09-14T00:23:50.866Z,100588.44
2022-09-14T00:26:23.829Z,100577.34
2022-09-14T00:28:53.386Z,100570.72
2022-09-14T00:31:22.421Z,100571.50
2022-09-14T00:33:51.611Z,100570.84
2022-09-14T00:36:22.001Z,100568.13
2022-09-14T00:38:51.581Z,100561.06
2022-09-14T00:41:28.974Z,100557.31
2022-09-14T00:43:59.429Z,100555.34
2022-09-14T00:46:29.339Z,100550.00
2022-09-14T00:49:00.936Z,100547.16
2022-09-14T00:51:30.985Z,100538.72
2022-09-14T00:54:02.696Z,100533.31
2022-09-14T00:56:30.898Z,100529.06
2022-09-14T00:59:00.706Z,100516.06
2022-09-14T01:01:28.616Z,100521.47
2022-09-14T01:03:56.279Z,100519.72
2022-09-14T01:06:35.957Z,100516.13
2022-09-14T01:09:19.089Z,100514.28
2022-09-14T01:12:06.798Z,100515.16
2022-09-14T01:14:43.634Z,100507.50
2022-09-14T01:17:17.602Z,100515.53
2022-09-14T01:20:10.949Z,100520.75
2022-09-14T01:22:47.667Z,100510.88
2022-09-14T01:25:38.838Z,100513.38
2022-09-14T01:28:13.558Z,100508.31
2022-09-14T01:30:43.712Z,100507.88
2022-09-14T01:33:18.923Z,100506.06
2022-09-14T01:35:53.329Z,100500.50
2022-09-14T01:38:24.428Z,100497.50
2022-09-14T01:40:52.473Z,100503.44
2022-09-14T01:43:26.226Z,100505.63
2022-09-14T01:45:57.077Z,100494.66
2022-09-14T01:48:32.731Z,100490.19
2022-09-14T01:51:04.339Z,100513.97
2022-09-14T01:53:37.699Z,100510.94
2022-09-14T01:56:11.974Z,100504.22
2022-09-14T01:58:45.908Z,100509.38
2022-09-14T02:01:19.177Z,100508.66
2022-09-14T02:03:50.933Z,100505.16
2022-09-14T02:06:24.893Z,100496.91
2022-09-14T02:08:53.248Z,100495.16
2022-09-14T02:11:21.087Z,100497.94
2022-09-14T02:13:50.160Z,100501.59
2022-09-14T02:16:18.019Z,100498.81
2022-09-14T02:18:45.873Z,100501.38
2022-09-14T02:21:16.959Z,100494.34
2022-09-14T02:23:44.802Z,100502.69
2022-09-14T02:26:12.814Z,100490.25
2022-09-14T02:28:40.495Z,100491.09
2022-09-14T02:31:18.676Z,100490.31
2022-09-14T02:33:55.745Z,100492.06
2022-09-14T02:36:29.675Z,100479.78
2022-09-14T02:39:03.402Z,100472.53
2022-09-14T02:41:42.040Z,100479.19
2022-09-14T02:44:17.318Z,100481.75
2022-09-14T02:46:51.624Z,100478.56
2022-09-14T02:49:24.015Z,100486.66
2022-09-14T02:51:58.412Z,100485.59
2022-09-14T02:54:31.829Z,100485.63
2022-09-14T02:57:01.667Z,100469.47
2022-09-14T02:59:29.816Z,100478.56
2022-09-14T03:02:00.858Z,100468.59
2022-09-14T03:04:29.036Z,100471.31
2022-09-14T03:06:56.906Z,100470.44
2022-09-14T03:09:24.554Z,100470.28
2022-09-14T03:11:52.154Z,100469.28
2022-09-14T03:14:19.735Z,100469.13
2022-09-14T03:16:47.361Z,100470.22
2022-09-14T03:19:16.558Z,100461.16
2022-09-14T03:21:44.174Z,100462.47
2022-09-14T03:24:12.137Z,100451.47
2022-09-14T03:26:40.087Z,100448.38
2022-09-14T03:29:07.926Z,100445.63
2022-09-14T03:31:35.767Z,100450.22
2022-09-14T03:34:03.917Z,100442.25
2022-09-14T03:36:33.257Z,100445.31
2022-09-14T03:39:02.703Z,100432.66
2022-09-14T03:41:30.895Z,100433.81
2022-09-14T03:43:58.533Z,100445.28
2022-09-14T03:46:26.959Z,100441.44
2022-09-14T03:48:55.838Z,100443.28
2022-09-14T03:51:23.811Z,100440.22
2022-09-14T03:53:53.104Z,100439.44
2022-09-14T03:56:23.114Z,100437.66
2022-09-14T03:58:51.346Z,100431.41
2022-09-14T04:01:21.387Z,100434.81
2022-09-14T04:03:50.254Z,100435.75
2022-09-14T04:06:19.176Z,100438.41
2022-09-14T04:08:48.355Z,100435.09
2022-09-14T04:11:19.982Z,100441.44
2022-09-14T04:13:48.531Z,100442.34
2022-09-14T04:16:17.893Z,100440.66
2022-09-14T04:18:45.789Z,100441.66
2022-09-14T04:21:15.925Z,100438.03
2022-09-14T04:24:03.451Z,100439.13
2022-09-14T04:26:33.580Z,100440.50
2022-09-14T04:29:01.218Z,100436.75
2022-09-14T04:31:28.967Z,100436.06
2022-09-14T04:33:57.635Z,100428.84
2022-09-14T04:36:29.377Z,100428.66
2022-09-14T04:38:58.609Z,100436.41
2022-09-14T04:41:27.524Z,100432.16
2022-09-14T04:43:57.719Z,100434.91
2022-09-14T04:46:27.599Z,100437.09
2022-09-14T04:48:55.492Z,100435.41
2022-09-14T04:51:25.039Z,100429.09
2022-09-14T04:53:55.069Z,100424.72
2022-09-14T04:56:24.450Z,100430.72
2022-09-14T04:58:54.012Z,100437.75
2022-09-14T05:01:24.904Z,100434.91
2022-09-14T05:03:53.231Z,100436.13
2022-09-14T05:06:23.104Z,100429.59
2022-09-14T05:08:52.079Z,100436.13
2022-09-14T05:11:21.456Z,100432.00
2022-09-14T05:13:50.410Z,100432.06
2022-09-14T05:16:20.139Z,100431.13
2022-09-14T05:18:50.258Z,100438.75
2022-09-14T05:21:20.471Z,100438.69
2022-09-14T05:23:49.359Z,100439.72
2022-09-14T05:26:17.298Z,100436.06
2022-09-14T05:28:44.912Z,100437.81
2022-09-14T05:31:13.096Z,100436.88
2022-09-14T05:33:40.948Z,100438.75
2022-09-14T05:36:10.591Z,100432.91
2022-09-14T05:38:40.174Z,100426.63
2022-09-14T05:41:09.545Z,100424.19
2022-09-14T05:43:37.216Z,100430.66
2022-09-14T05:46:06.604Z,100415.63
2022-09-14T05:48:35.015Z,100413.53
2022-09-14T05:51:04.290Z,100418.63
2022-09-14T05:53:33.333Z,100420.75
2022-09-14T05:56:02.197Z,100415.81
2022-09-14T05:58:30.154Z,100412.06
2022-09-14T06:00:58.023Z,100419.50
2022-09-14T06:03:26.104Z,100409.75
2022-09-14T06:05:54.876Z,100404.84
2022-09-14T06:08:23.429Z,100404.56
2022-09-14T06:10:52.472Z,100414.22
2022-09-14T06:13:20.118Z,100417.72
2022-09-14T06:15:47.749Z,100409.63
2022-09-14T06:18:15.434Z,100414.97
2022-09-14T06:20:51.523Z,100411.22
2022-09-14T06:23:19.562Z,100419.31
2022-09-14T06:25:47.147Z,100419.56
2022-09-14T06:28:16.163Z,100416.00
2022-09-14T06:30:45.032Z,100416.72
2022-09-14T06:33:12.697Z,100422.06
2022-09-14T06:35:42.017Z,100418.63
2022-09-14T06:38:09.987Z,100416.88
2022-09-14T06:40:37.632Z,100421.38
2022-09-14T06:43:05.236Z,100426.59
2022-09-14T06:45:34.255Z,100415.63
2022-09-14T06:48:02.102Z,100430.81
2022-09-14T06:50:29.800Z,100422.78
2022-09-14T06:52:57.435Z,100434.28
2022-09-14T06:55:25.085Z,100433.44
2022-09-14T06:57:52.756Z,100438.91
2022-09-14T07:00:20.539Z,100439.97
2022-09-14T07:02:52.463Z,100435.13
2022-09-14T07:05:23.128Z,100433.59
2022-09-14T07:07:53.360Z,100422.69
2022-09-14T07:10:21.030Z,100420.41
2022-09-14T07:12:48.718Z,100426.47
2022-09-14T07:15:16.446Z,100430.69
2022-09-14T07:17:47.147Z,100424.81
2022-09-14T07:20:16.417Z,100424.56
2022-09-14T07:22:45.099Z,100436.09
2022-09-14T07:25:13.013Z,100432.59
2022-09-14T07:27:40.690Z,100430.69
2022-09-14T07:30:09.647Z,100424.19
2022-09-14T07:32:37.281Z,100420.50
2022-09-14T07:35:05.298Z,100417.06
2022-09-14T07:37:34.368Z,100415.94
2022-09-14T07:40:02.349Z,100414.03
2022-09-14T07:42:30.049Z,100419.38
2022-09-14T07:44:57.753Z,100424.03
2022-09-14T07:47:25.577Z,100411.59
2022-09-14T07:49:53.198Z,100416.88
2022-09-14T07:52:23.225Z,100419.44
2022-09-14T07:54:52.601Z,100423.19
2022-09-14T07:57:33.964Z,100422.25
2022-09-14T08:00:10.014Z,100429.34
2022-09-14T08:02:37.729Z,100419.31
2022-09-14T08:05:05.943Z,100419.38
2022-09-14T08:07:33.805Z,100412.28
2022-09-14T08:10:03.136Z,100411.22
2022-09-14T08:12:31.116Z,100409.47
2022-09-14T08:14:58.768Z,100414.81
2022-09-14T08:17:26.523Z,100399.50
2022-09-14T08:19:55.637Z,100401.25
2022-09-14T08:22:23.307Z,100403.00
2022-09-14T08:24:51.006Z,100402.13
2022-09-14T08:27:20.034Z,100402.38
2022-09-14T08:29:47.638Z,100401.00
2022-09-14T08:32:15.267Z,100403.91
2022-09-14T08:34:42.903Z,100399.22
2022-09-14T08:37:10.971Z,100390.88
2022-09-14T08:39:38.625Z,100388.84
2022-09-14T08:42:07.032Z,100391.53
2022-09-14T08:44:41.639Z,100384.09
2022-09-14T08:47:13.654Z,100384.91
2022-09-14T08:49:47.608Z,100380.38
2022-09-14T08:52:23.270Z,100382.94
2022-09-14T08:54:55.035Z,100383.13
2022-09-14T08:57:29.606Z,100386.88
2022-09-14T09:00:08.015Z,100384.91
2022-09-14T09:02:51.010Z,100390.19
2022-09-14T09:05:31.362Z,100385.59
2022-09-14T09:08:06.193Z,100390.81
2022-09-14T09:10:36.360Z,100385.28
2022-09-14T09:13:06.678Z,100391.34
2022-09-14T09:15:38.174Z,100390.41
2022-09-14T09:18:09.793Z,100388.63
2022-09-14T09:20:41.526Z,100392.25
2022-09-14T09:23:14.269Z,100387.84
2022-09-14T09:26:04.706Z,100387.59
2022-09-14T09:28:33.645Z,100387.50
2022-09-14T09:31:10.185Z,100380.19
2022-09-14T09:33:40.482Z,100386.38
2022-09-14T09:36:13.415Z,100390.72
2022-09-14T09:38:41.444Z,100393.34
2022-09-14T09:41:15.107Z,100400.59
2022-09-14T09:43:59.879Z,100410.44
2022-09-14T09:46:31.879Z,100399.50
2022-09-14T09:49:00.370Z,100400.91
2022-09-14T09:51:31.454Z,100401.09
2022-09-14T09:54:08.627Z,100411.34
2022-09-14T09:56:39.458Z,100416.22
2022-09-14T09:59:23.345Z,100409.06
2022-09-14T10:01:55.549Z,100407.13
2022-09-14T10:04:27.870Z,100409.34
2022-09-14T10:06:57.686Z,100412.97
2022-09-14T10:09:28.161Z,100402.94
2022-09-14T10:12:01.478Z,100412.75
2022-09-14T10:14:32.233Z,100411.03
2022-09-14T10:17:16.646Z,100410.00
2022-09-14T10:19:48.761Z,100409.28
2022-09-14T10:22:26.761Z,100399.06
2022-09-14T10:24:57.507Z,100401.22
2022-09-14T10:27:39.630Z,100403.41
2022-09-14T10:30:13.247Z,100393.22
2022-09-14T10:32:45.817Z,100391.06
2022-09-14T10:35:15.309Z,100394.53
2022-09-14T10:37:56.442Z,100383.53
2022-09-14T10:40:31.721Z,100388.06
2022-09-14T10:43:10.131Z,100397.03
2022-09-14T10:45:42.331Z,100392.56
2022-09-14T10:48:43.681Z,100387.31
2022-09-14T10:51:36.120Z,100381.97
2022-09-14T10:54:13.865Z,100374.09
2022-09-14T10:56:57.038Z,100388.25
2022-09-14T10:59:32.758Z,100382.31
2022-09-14T11:02:37.892Z,100383.75
2022-09-14T11:05:13.107Z,100385.38
2022-09-14T11:07:53.444Z,100385.19
2022-09-14T11:10:29.332Z,100388.72
2022-09-14T11:13:19.408Z,100384.25
2022-09-14T11:15:57.959Z,100370.34
2022-09-14T11:18:34.564Z,100367.41
2022-09-14T11:21:10.175Z,100361.63
2022-09-14T11:23:48.920Z,100360.75
2022-09-14T11:26:23.743Z,100359.53
2022-09-14T11:28:55.078Z,100346.59
2022-09-14T11:31:27.715Z,100350.16
2022-09-14T11:34:00.077Z,100354.41
2022-09-14T11:36:34.051Z,100352.34
2022-09-14T11:39:07.210Z,100352.94
2022-09-14T11:41:40.346Z,100353.69
2022-09-14T11:44:14.411Z,100351.78
2022-09-14T11:46:45.153Z,100348.28
2022-09-14T11:49:19.732Z,100353.50
2022-09-14T11:51:53.525Z,100344.25
2022-09-14T11:54:23.542Z,100347.09
2022-09-14T11:56:53.702Z,100349.72
2022-09-14T11:59:48.361Z,100347.81
2022-09-14T12:02:52.454Z,100347.41
2022-09-14T12:05:33.163Z,100353.75
2022-09-14T12:08:21.265Z,100352.69
2022-09-14T12:11:28.593Z,100347.28
2022-09-14T12:14:16.229Z,100348.03
2022-09-14T12:17:39.909Z,100352.41
2022-09-14T12:20:45.085Z,100349.84
2022-09-14T12:23:24.648Z,100348.97
2022-09-14T12:26:03.637Z,100348.84
2022-09-14T12:28:43.463Z,100332.69
2022-09-14T12:31:15.927Z,100333.72
2022-09-14T12:34:15.857Z,100342.91
2022-09-14T12:37:20.210Z,100349.38
2022-09-14T12:40:27.843Z,100348.38
2022-09-14T12:42:56.851Z,100343.91
2022-09-14T12:45:51.249Z,100340.19
2022-09-14T12:48:58.594Z,100348.16
2022-09-14T12:51:37.691Z,100343.44
2022-09-14T12:54:18.265Z,100338.91
2022-09-14T12:56:56.372Z,100334.38
2022-09-14T12:59:32.472Z,100337.78
2022-09-14T13:02:14.836Z,100344.03
2022-09-14T13:04:45.555Z,100335.38
2022-09-14T13:07:15.912Z,100339.06
2022-09-14T13:09:49.110Z,100339.84
2022-09-14T13:12:24.842Z,100339.19
2022-09-14T13:14:56.538Z,100341.13
2022-09-14T13:17:24.199Z,100336.66
2022-09-14T13:19:56.467Z,100330.63
2022-09-14T13:22:26.009Z,100328.03
2022-09-14T13:24:56.228Z,100326.94
2022-09-14T13:27:27.021Z,100323.31
2022-09-14T13:30:05.189Z,100312.50
2022-09-14T13:32:35.835Z,100309.59
2022-09-14T13:35:05.982Z,100312.66
2022-09-14T13:37:33.720Z,100306.31
2022-09-14T13:40:01.547Z,100302.66
2022-09-14T13:42:29.395Z,100293.69
2022-09-14T13:44:57.236Z,100291.81
2022-09-14T13:47:26.934Z,100290.00
2022-09-14T13:49:55.870Z,100294.69
2022-09-14T13:52:57.463Z,100284.66
2022-09-14T13:55:27.646Z,100285.66
2022-09-14T13:58:17.245Z,100281.03
2022-09-14T14:00:58.002Z,100294.09
2022-09-14T14:03:30.749Z,100300.22
2022-09-14T14:05:59.209Z,100293.97
2022-09-14T14:08:34.118Z,100293.81
2022-09-14T14:11:05.154Z,100283.31
2022-09-14T14:13:35.456Z,100276.53
2022-09-14T14:16:18.168Z,100282.63
2022-09-14T14:18:53.262Z,100277.22
2022-09-14T14:21:30.050Z,100270.13
2022-09-14T14:24:28.418Z,100271.72
2022-09-14T14:26:57.879Z,100262.31
2022-09-14T14:29:26.808Z,100260.97
2022-09-14T14:31:56.823Z,100256.44
2022-09-14T14:34:28.794Z,100251.66
2022-09-14T14:36:57.589Z,100258.75
2022-09-14T14:39:26.482Z,100268.13
2022-09-14T14:41:54.527Z,100273.31
2022-09-14T14:44:24.212Z,100271.22
2022-09-14T14:46:52.251Z,100277.03
2022-09-14T14:49:20.889Z,100279.81
2022-09-14T14:51:49.955Z,100265.22
2022-09-14T14:54:18.725Z,100256.84
2022-09-14T14:56:47.843Z,100254.91
2022-09-14T14:59:28.518Z,100245.88
2022-09-14T15:01:57.100Z,100249.50
2022-09-14T15:04:25.316Z,100249.69
2022-09-14T15:06:54.496Z,100252.19
2022-09-14T15:09:25.432Z,100252.84
2022-09-14T15:11:54.626Z,100256.09
2022-09-14T15:14:26.969Z,100251.59
2022-09-14T15:16:59.740Z,100255.53
2022-09-14T15:19:28.105Z,100248.22
2022-09-14T15:22:00.963Z,100251.91
2022-09-14T15:24:29.941Z,100257.34
2022-09-14T15:26:57.827Z,100261.84
2022-09-14T15:29:25.662Z,100268.75
2022-09-14T15:31:53.409Z,100270.28
2022-09-14T15:34:21.300Z,100270.03
2022-09-14T15:36:51.239Z,100265.28
2022-09-14T15:39:21.954Z,100262.00
2022-09-14T15:41:49.993Z,100257.25
2022-09-14T15:44:18.014Z,100261.31
2022-09-14T15:46:46.860Z,100263.63
2022-09-14T15:49:17.774Z,100272.25
2022-09-14T15:51:47.750Z,100274.09
2022-09-14T15:54:16.002Z,100271.41
2022-09-14T15:56:49.676Z,100280.19
2022-09-14T15:59:21.988Z,100280.25
2022-09-14T16:01:49.977Z,100289.16
2022-09-14T16:04:18.040Z,100281.81
2022-09-14T16:06:46.130Z,100289.03
2022-09-14T16:09:15.917Z,100285.59
2022-09-14T16:11:45.318Z,100285.38
2022-09-14T16:14:12.999Z,100284.53
2022-09-14T16:16:41.409Z,100284.63
2022-09-14T16:19:11.501Z,100280.19
2022-09-14T16:21:39.782Z,100282.91
2022-09-14T16:24:11.301Z,100278.44
2022-09-14T16:26:39.705Z,100285.97
2022-09-14T16:29:11.616Z,100290.59
2022-09-14T16:31:41.506Z,100288.66
2022-09-14T16:34:12.541Z,100279.56
2022-09-14T16:36:41.395Z,100288.75
2022-09-14T16:39:12.146Z,100290.44
2022-09-14T16:41:41.746Z,100295.91
2022-09-14T16:44:13.924Z,100282.34
2022-09-14T16:46:41.722Z,100292.31
2022-09-14T16:49:09.529Z,100290.38
2022-09-14T16:51:37.756Z,100291.38
2022-09-14T16:54:05.762Z,100298.63
2022-09-14T16:56:35.595Z,100303.19
2022-09-14T16:59:04.356Z,100307.78
2022-09-14T17:01:35.138Z,100308.03
2022-09-14T17:04:08.186Z,100309.91
2022-09-14T17:06:37.775Z,100316.13
2022-09-14T17:09:08.928Z,100308.91
2022-09-14T17:11:38.004Z,100300.88
2022-09-14T17:14:06.685Z,100293.88
2022-09-14T17:16:35.993Z,100297.56
2022-09-14T17:19:05.660Z,100298.47
2022-09-14T17:21:35.281Z,100300.25
2022-09-14T17:24:04.373Z,100310.38
2022-09-14T17:26:32.889Z,100297.69
2022-09-14T17:29:01.933Z,100296.00
2022-09-14T17:31:31.909Z,100317.56
2022-09-14T17:34:02.618Z,100304.28
2022-09-14T17:36:31.098Z,100300.94
2022-09-14T17:39:01.869Z,100298.31
2022-09-14T17:41:31.641Z,100292.91
2022-09-14T17:44:02.147Z,100291.91
2022-09-14T17:46:30.662Z,100291.91
2022-09-14T17:49:00.452Z,100292.06
2022-09-14T17:51:30.803Z,100300.88
2022-09-14T17:53:59.833Z,100301.72
2022-09-14T17:56:29.182Z,100292.78
2022-09-14T17:59:02.969Z,100297.44
2022-09-14T18:01:31.939Z,100303.84
2022-09-14T18:04:02.930Z,100299.50
2022-09-14T18:06:35.614Z,100299.44
2022-09-14T18:09:05.931Z,100300.41
2022-09-14T18:11:34.466Z,100300.56
2022-09-14T18:14:03.643Z,100303.38
2022-09-14T18:16:31.807Z,100301.81
2022-09-14T18:18:59.890Z,100304.81
2022-09-14T18:21:28.138Z,100304.81
2022-09-14T18:23:57.280Z,100305.75
2022-09-14T18:26:26.241Z,100307.69
2022-09-14T18:28:55.977Z,100310.41
2022-09-14T18:31:24.325Z,100310.41
2022-09-14T18:33:53.676Z,100314.94
2022-09-14T18:36:22.250Z,100313.22
2022-09-14T18:38:51.476Z,100309.75
2022-09-14T18:41:21.604Z,100309.81
2022-09-14T18:43:51.377Z,100312.50
2022-09-14T18:46:22.398Z,100322.28
2022-09-14T18:48:52.886Z,100316.84
2022-09-14T18:51:20.783Z,100325.78
2022-09-14T18:53:48.670Z,100327.69
2022-09-14T18:56:17.953Z,100317.03
2022-09-14T18:58:48.810Z,100322.50
2022-09-14T19:01:16.585Z,100318.94
2022-09-14T19:03:45.076Z,100315.31
2022-09-14T19:06:15.264Z,100319.81
2022-09-14T19:08:43.534Z,100317.22
2022-09-14T19:11:13.106Z,100321.94
2022-09-14T19:13:41.302Z,100330.09
2022-09-14T19:16:12.387Z,100323.00
2022-09-14T19:18:40.542Z,100325.69
2022-09-14T19:21:14.342Z,100331.00
2022-09-14T19:23:42.958Z,100327.47
2022-09-14T19:26:15.059Z,100331.88
2022-09-14T19:28:43.312Z,100331.88
2022-09-14T19:31:22.849Z,100335.69
2022-09-14T19:33:51.196Z,100338.44
2022-09-14T19:36:20.930Z,100343.75
2022-09-14T19:38:49.739Z,100349.16
2022-09-14T19:41:17.994Z,100352.88
2022-09-14T19:43:46.227Z,100356.47
2022-09-14T19:46:17.181Z,100352.94
2022-09-14T19:48:45.657Z,100350.38
2022-09-14T19:51:15.423Z,100349.50
2022-09-14T19:53:44.090Z,100357.63
2022-09-14T19:56:14.063Z,100354.97
2022-09-14T19:58:43.807Z,100356.81
2022-09-14T20:01:12.265Z,100353.31
2022-09-14T20:03:41.640Z,100353.44
2022-09-14T20:06:11.352Z,100351.72
2022-09-14T20:08:39.472Z,100355.28
2022-09-14T20:11:08.394Z,100359.94
2022-09-14T20:13:36.665Z,100356.44
2022-09-14T20:16:12.523Z,100357.44
2022-09-14T20:18:42.414Z,100357.44
2022-09-14T20:21:11.806Z,100352.09
2022-09-14T20:24:11.366Z,100347.75
2022-09-14T20:26:35.550Z,100369.41
2022-09-14T20:29:03.491Z,100372.22
2022-09-14T20:31:32.245Z,100373.38
2022-09-14T20:34:01.974Z,100377.88
2022-09-14T20:36:31.115Z,100367.97
2022-09-14T20:39:00.206Z,100376.97
2022-09-14T20:41:30.187Z,100372.53
2022-09-14T20:43:58.238Z,100372.63
2022-09-14T20:46:27.714Z,100379.03
2022-09-14T20:48:55.948Z,100378.13
2022-09-14T20:51:26.558Z,100379.22
2022-09-14T20:53:56.105Z,100374.09
2022-09-14T20:56:26.262Z,100379.44
2022-09-14T20:58:55.615Z,100380.28
2022-09-14T21:01:25.498Z,100385.63
2022-09-14T21:03:53.541Z,100388.31
2022-09-14T21:06:26.347Z,100391.91
2022-09-14T21:08:54.221Z,100399.00
2022-09-14T21:11:23.916Z,100400.69
2022-09-14T21:13:53.102Z,100402.38
2022-09-14T21:16:24.598Z,100404.16
2022-09-14T21:18:55.427Z,100404.09
2022-09-14T21:21:23.591Z,100405.03
2022-09-14T21:23:54.061Z,100411.31
2022-09-14T21:26:21.734Z,100414.06
2022-09-14T21:28:49.532Z,100426.63
2022-09-14T21:31:19.287Z,100422.13
2022-09-14T21:33:48.975Z,100414.06
2022-09-14T21:36:18.718Z,100410.34
2022-09-14T21:38:50.522Z,100413.00
2022-09-14T21:41:21.084Z,100419.34
2022-09-14T21:43:49.048Z,100434.53
2022-09-14T21:46:17.469Z,100430.97
2022-09-14T21:48:45.672Z,100435.44
2022-09-14T21:51:18.070Z,100438.13
2022-09-14T21:53:46.464Z,100436.34
2022-09-14T21:56:14.636Z,100438.22
2022-09-14T21:58:44.116Z,100434.63
2022-09-14T22:01:12.194Z,100428.50
2022-09-14T22:03:40.330Z,100422.31
2022-09-14T22:06:11.138Z,100427.69
2022-09-14T22:08:38.890Z,100433.25
2022-09-14T22:11:07.895Z,100435.16
2022-09-14T22:13:35.654Z,100444.22
2022-09-14T22:16:09.028Z,100446.09
2022-09-14T22:18:37.808Z,100441.75
2022-09-14T22:21:06.276Z,100433.78
2022-09-14T22:23:35.002Z,100438.34
2022-09-14T22:26:07.238Z,100442.81
2022-09-14T22:28:35.019Z,100433.09
2022-09-14T22:31:03.054Z,100450.19
2022-09-14T22:33:32.216Z,100443.03
2022-09-14T22:36:02.039Z,100439.41
2022-09-14T22:38:32.860Z,100440.28
2022-09-14T22:41:02.366Z,100450.06
2022-09-14T22:43:30.770Z,100445.66
2022-09-14T22:45:59.150Z,100451.00
2022-09-14T22:48:27.458Z,100457.19
2022-09-14T22:50:58.072Z,100439.16
2022-09-14T22:53:26.919Z,100442.66
2022-09-14T22:55:55.004Z,100448.78
2022-09-14T22:58:25.101Z,100451.44
2022-09-14T23:00:53.492Z,100450.41
2022-09-14T23:03:21.571Z,100454.00
2022-09-14T23:05:50.833Z,100453.09
2022-09-14T23:08:20.579Z,100450.34
2022-09-14T23:10:48.800Z,100453.00
2022-09-14T23:13:17.127Z,100455.69
2022-09-14T23:15:44.958Z,100461.13
2022-09-14T23:18:13.460Z,100455.78
2022-09-14T23:20:42.887Z,100455.84
2022-09-14T23:23:10.985Z,100459.44
2022-09-14T23:25:41.618Z,100456.88
2022-09-14T23:28:12.588Z,100451.47
2022-09-14T23:30:40.491Z,100463.16
2022-09-14T23:33:08.201Z,100453.41
2022-09-14T23:35:37.897Z,100454.44
2022-09-14T23:38:05.727Z,100461.59
2022-09-14T23:40:33.473Z,100463.44
2022-09-14T23:43:02.587Z,100462.50
2022-09-14T23:45:30.232Z,100463.38
2022-09-14T23:47:57.982Z,100466.00
2022-09-14T23:50:25.734Z,100465.97
2022-09-14T23:52:57.314Z,100472.19
2022-09-14T23:55:25.093Z,100468.53
2022-09-14T23:57:52.779Z,100466.72
